Perry, Utah
Current Conditions -  °F | °C
As of 4:15 PM on Thursday 20 Nov 2014 (Local Time) from KBMC Reporting Station
Overcast Overcast  
Wind Chill: 44°   Ceiling: 8000
Heat Index: 44°   Visibility: 10mi
Dew Point: 24°   Wind: 0mph
Humidity: 46%   Direction: NA
Pressure: 30.08"   Gusts: NA
Location:  41.4833°N, 112.095°W
Report Text: KBMC 202315Z AUTO 00000KT 10SM OVC080 06/M04 A3008 RMK AO1 T00641045
Loading
Personal Weather Stations






























Interactive Weather Map New forecast layout! Learn more

10-Day Weather Forecast

Advertisements
Track Severe Weather on mobile